createdAt,value
2023-04-10T00:00:34.874Z,16.20
2023-04-10T00:01:34.883Z,13.10
2023-04-10T00:02:34.920Z,15.10
2023-04-10T00:03:34.913Z,15.00
2023-04-10T00:04:34.963Z,14.00
2023-04-10T00:05:34.789Z,14.20
2023-04-10T00:06:34.783Z,12.00
2023-04-10T00:07:34.796Z,15.40
2023-04-10T00:08:34.772Z,12.50
2023-04-10T00:09:34.745Z,12.70
2023-04-10T00:10:34.736Z,12.50
2023-04-10T00:11:34.728Z,14.00
2023-04-10T00:12:34.713Z,14.60
2023-04-10T00:13:34.759Z,13.00
2023-04-10T00:14:34.691Z,12.40
2023-04-10T00:15:34.679Z,15.20
2023-04-10T00:16:34.726Z,14.70
2023-04-10T00:17:34.689Z,15.00
2023-04-10T00:18:34.670Z,16.40
2023-04-10T00:19:34.649Z,12.20
2023-04-10T00:20:34.621Z,12.60
2023-04-10T00:21:41.777Z,13.90
2023-04-10T00:22:34.603Z,12.80
2023-04-10T00:23:41.786Z,14.40
2023-04-10T00:24:42.659Z,15.20
2023-04-10T00:25:41.701Z,14.10
2023-04-10T00:26:34.583Z,13.70
2023-04-10T00:27:34.545Z,12.60
2023-04-10T00:28:34.553Z,15.30
2023-04-10T00:29:34.519Z,17.20
2023-04-10T00:30:34.555Z,15.90
2023-04-10T00:31:34.545Z,14.60
2023-04-10T00:32:34.505Z,12.90
2023-04-10T00:33:34.500Z,14.20
2023-04-10T00:34:34.464Z,14.50
2023-04-10T00:35:34.472Z,13.60
2023-04-10T00:36:34.462Z,17.90
2023-04-10T00:37:34.443Z,14.60
2023-04-10T00:38:34.438Z,14.20
2023-04-10T00:39:34.432Z,13.40
2023-04-10T00:40:34.400Z,12.70
2023-04-10T00:41:34.411Z,14.00
2023-04-10T00:42:34.374Z,14.40
2023-04-10T00:43:34.380Z,14.70
2023-04-10T00:44:34.358Z,13.00
2023-04-10T00:45:34.442Z,14.70
2023-04-10T00:46:34.354Z,13.80
2023-04-10T00:47:34.393Z,12.60
2023-04-10T00:48:34.306Z,12.90
2023-04-10T00:49:34.303Z,14.70
2023-04-10T00:50:34.288Z,14.60
2023-04-10T00:51:34.298Z,14.00
2023-04-10T00:52:34.263Z,13.60
2023-04-10T00:53:34.278Z,13.80
2023-04-10T00:54:34.238Z,15.60
2023-04-10T00:55:34.245Z,13.30
2023-04-10T00:56:34.254Z,13.30
2023-04-10T00:57:34.201Z,13.10
2023-04-10T00:58:34.199Z,13.70
2023-04-10T00:59:34.239Z,13.70
2023-04-10T01:00:34.173Z,14.20
2023-04-10T01:01:34.272Z,13.00
2023-04-10T01:02:34.267Z,11.90
2023-04-10T01:03:34.221Z,14.20
2023-04-10T01:04:34.313Z,13.90
2023-04-10T01:05:34.146Z,13.90
2023-04-10T01:06:34.100Z,14.80
2023-04-10T01:07:34.085Z,12.80
2023-04-10T01:08:34.074Z,13.00
2023-04-10T01:09:34.073Z,14.80
2023-04-10T01:10:34.088Z,14.00
2023-04-10T01:11:34.067Z,13.80
2023-04-10T01:12:34.041Z,13.70
2023-04-10T01:13:34.019Z,14.20
2023-04-10T01:14:34.051Z,11.80
2023-04-10T01:15:34.019Z,13.90
2023-04-10T01:16:34.006Z,13.60
2023-04-10T01:17:34.012Z,13.60
2023-04-10T01:18:33.998Z,13.80
2023-04-10T01:19:33.965Z,13.10
2023-04-10T01:20:33.960Z,13.60
2023-04-10T01:21:33.930Z,14.50
2023-04-10T01:22:33.924Z,13.90
2023-04-10T01:23:33.914Z,13.30
2023-04-10T01:24:33.895Z,13.40
2023-04-10T01:25:33.905Z,13.10
2023-04-10T01:26:33.873Z,16.50
2023-04-10T01:27:33.883Z,13.70
2023-04-10T01:28:33.862Z,14.00
2023-04-10T01:29:33.848Z,12.30
2023-04-10T01:30:33.931Z,12.20
2023-04-10T01:31:33.831Z,11.50
2023-04-10T01:32:33.864Z,11.60
2023-04-10T01:33:33.817Z,13.60
2023-04-10T01:34:33.800Z,14.20
2023-04-10T01:35:33.791Z,15.00
2023-04-10T01:36:33.759Z,10.80
2023-04-10T01:37:33.745Z,11.60
2023-04-10T01:38:33.739Z,13.10
2023-04-10T01:39:33.745Z,13.40
2023-04-10T01:40:33.717Z,13.60
2023-04-10T01:41:33.709Z,11.60
2023-04-10T01:42:33.702Z,13.60
2023-04-10T01:43:33.706Z,13.60
2023-04-10T01:44:33.702Z,13.80
2023-04-10T01:45:33.698Z,12.60
2023-04-10T01:46:33.675Z,12.30
2023-04-10T01:47:33.683Z,13.60
2023-04-10T01:48:33.627Z,13.70
2023-04-10T01:49:33.634Z,14.70
2023-04-10T01:50:33.620Z,13.50
2023-04-10T01:51:33.593Z,11.90
2023-04-10T01:52:33.606Z,12.80
2023-04-10T01:53:33.574Z,10.90
2023-04-10T01:54:33.576Z,13.30
2023-04-10T01:55:33.552Z,10.70
2023-04-10T01:56:33.534Z,12.30
2023-04-10T01:57:33.549Z,12.20
2023-04-10T01:58:33.513Z,12.60
2023-04-10T01:59:33.525Z,13.90
2023-04-10T02:00:33.496Z,12.10
2023-04-10T02:01:33.643Z,12.90
2023-04-10T02:02:33.735Z,12.90
2023-04-10T02:03:33.575Z,12.40
2023-04-10T02:04:33.591Z,11.10
2023-04-10T02:05:33.529Z,16.50
2023-04-10T02:06:33.448Z,15.30
2023-04-10T02:07:33.414Z,13.20
2023-04-10T02:08:33.408Z,12.10
2023-04-10T02:09:33.390Z,13.60
2023-04-10T02:10:34.343Z,12.30
2023-04-10T02:11:33.400Z,13.50
2023-04-10T02:12:33.355Z,12.30
2023-04-10T02:13:33.348Z,14.20
2023-04-10T02:14:36.377Z,14.10
2023-04-10T02:15:33.381Z,12.50
2023-04-10T02:16:33.393Z,16.60
2023-04-10T02:17:33.312Z,13.60
2023-04-10T02:18:33.324Z,12.90
2023-04-10T02:19:33.278Z,11.70
2023-04-10T02:20:33.288Z,13.70
2023-04-10T02:21:33.260Z,13.20
2023-04-10T02:22:33.244Z,16.00
2023-04-10T02:23:33.230Z,14.00
2023-04-10T02:24:33.241Z,13.30
2023-04-10T02:25:33.219Z,12.50
2023-04-10T02:26:33.195Z,13.80
2023-04-10T02:27:33.199Z,14.20
2023-04-10T02:28:33.179Z,13.80
2023-04-10T02:29:33.194Z,14.40
2023-04-10T02:30:33.149Z,16.80
2023-04-10T02:31:33.196Z,15.10
2023-04-10T02:32:33.213Z,13.30
2023-04-10T02:33:33.118Z,13.40
2023-04-10T02:34:33.105Z,13.30
2023-04-10T02:35:33.149Z,14.60
2023-04-10T02:36:33.099Z,12.80
2023-04-10T02:37:33.085Z,13.30
2023-04-10T02:38:33.067Z,13.00
2023-04-10T02:39:33.057Z,12.60
2023-04-10T02:40:33.036Z,14.30
2023-04-10T02:41:33.049Z,14.80
2023-04-10T02:42:33.017Z,15.10
2023-04-10T02:43:33.001Z,15.10
2023-04-10T02:44:32.992Z,14.10
2023-04-10T02:45:32.990Z,16.70
2023-04-10T02:46:33.039Z,18.00
2023-04-10T02:47:33.027Z,15.50
2023-04-10T02:48:32.944Z,15.00
2023-04-10T02:49:32.937Z,14.50
2023-04-10T02:50:32.923Z,16.50
2023-04-10T02:51:32.920Z,16.10
2023-04-10T02:52:32.921Z,13.40
2023-04-10T02:53:32.885Z,15.10
2023-04-10T02:54:32.877Z,16.10
2023-04-10T02:55:32.872Z,15.20
2023-04-10T02:56:32.875Z,15.20
2023-04-10T02:57:32.865Z,14.00
2023-04-10T02:58:32.832Z,16.00
2023-04-10T02:59:32.841Z,16.20
2023-04-10T03:00:32.830Z,17.20
2023-04-10T03:01:32.848Z,16.90
2023-04-10T03:02:33.010Z,14.40
2023-04-10T03:03:32.941Z,15.20
2023-04-10T03:04:32.792Z,14.00
2023-04-10T03:05:32.777Z,15.10
2023-04-10T03:06:32.758Z,16.40
2023-04-10T03:07:32.736Z,15.10
2023-04-10T03:08:32.725Z,14.50
2023-04-10T03:09:32.721Z,14.30
2023-04-10T03:10:32.749Z,16.10
2023-04-10T03:11:32.689Z,15.50
2023-04-10T03:12:32.680Z,15.10
2023-04-10T03:13:32.668Z,14.60
2023-04-10T03:14:32.654Z,14.50
2023-04-10T03:15:32.683Z,16.00
2023-04-10T03:16:32.726Z,16.90
2023-04-10T03:17:32.676Z,15.50
2023-04-10T03:18:32.632Z,16.50
2023-04-10T03:19:32.614Z,13.90
2023-04-10T03:20:32.583Z,17.20
2023-04-10T03:21:32.622Z,13.80
2023-04-10T03:22:32.566Z,14.50
2023-04-10T03:23:32.553Z,15.50
2023-04-10T03:24:32.540Z,13.80
2023-04-10T03:25:32.536Z,14.30
2023-04-10T03:26:32.545Z,17.40
2023-04-10T03:27:32.520Z,14.70
2023-04-10T03:28:32.497Z,14.60
2023-04-10T03:29:32.510Z,15.80
2023-04-10T03:30:32.498Z,17.20
2023-04-10T03:31:32.530Z,13.80
2023-04-10T03:32:32.473Z,15.50
2023-04-10T03:33:32.481Z,15.60
2023-04-10T03:34:32.426Z,16.60
2023-04-10T03:35:32.483Z,16.30
2023-04-10T03:36:32.405Z,16.50
2023-04-10T03:37:32.413Z,16.30
2023-04-10T03:38:32.383Z,18.40
2023-04-10T03:39:32.382Z,16.20
2023-04-10T03:40:32.360Z,14.50
2023-04-10T03:41:32.383Z,15.40
2023-04-10T03:42:32.347Z,16.30
2023-04-10T03:43:32.378Z,14.40
2023-04-10T03:44:32.345Z,17.10
2023-04-10T03:45:32.322Z,15.50
2023-04-10T03:46:32.328Z,16.90
2023-04-10T03:47:32.370Z,16.20
2023-04-10T03:48:32.299Z,13.20
2023-04-10T03:49:32.263Z,14.10
2023-04-10T03:50:32.248Z,14.20
2023-04-10T03:51:32.302Z,14.50
2023-04-10T03:52:32.229Z,17.90
2023-04-10T03:53:34.042Z,14.60
2023-04-10T03:54:32.197Z,14.30
2023-04-10T03:55:34.723Z,14.00
2023-04-10T03:56:32.180Z,15.30
2023-04-10T03:57:32.187Z,14.90
2023-04-10T03:58:32.174Z,13.30
2023-04-10T03:59:38.706Z,13.30
2023-04-10T04:00:33.137Z,12.80
2023-04-10T04:01:32.123Z,12.60
2023-04-10T04:02:32.232Z,12.10
2023-04-10T04:03:32.243Z,13.10
2023-04-10T04:04:32.213Z,14.80
2023-04-10T04:05:32.077Z,12.90
2023-04-10T04:06:32.091Z,14.50
2023-04-10T04:07:32.072Z,13.10
2023-04-10T04:08:32.065Z,12.70
2023-04-10T04:09:32.065Z,14.30
2023-04-10T04:10:32.018Z,13.60
2023-04-10T04:11:32.011Z,12.60
2023-04-10T04:12:32.000Z,12.70
2023-04-10T04:13:32.013Z,13.20
2023-04-10T04:14:31.975Z,13.50
2023-04-10T04:15:31.979Z,14.70
2023-04-10T04:16:31.970Z,12.90
2023-04-10T04:17:32.035Z,15.10
2023-04-10T04:18:31.935Z,15.40
2023-04-10T04:19:31.917Z,16.00
2023-04-10T04:20:31.907Z,15.40
2023-04-10T04:21:31.932Z,16.50
2023-04-10T04:22:32.008Z,14.90
2023-04-10T04:23:31.890Z,16.30
2023-04-10T04:24:31.864Z,16.30
2023-04-10T04:25:31.856Z,14.70
2023-04-10T04:26:31.855Z,13.70
2023-04-10T04:27:31.843Z,15.50
2023-04-10T04:28:31.824Z,13.90
2023-04-10T04:29:31.804Z,16.20
2023-04-10T04:30:31.804Z,14.50
2023-04-10T04:31:31.850Z,13.90
2023-04-10T04:32:31.802Z,15.20
2023-04-10T04:33:31.773Z,14.20
2023-04-10T04:34:31.763Z,16.70
2023-04-10T04:35:31.752Z,16.90
2023-04-10T04:36:31.735Z,16.50
2023-04-10T04:37:31.739Z,14.40
2023-04-10T04:38:31.715Z,15.30
2023-04-10T04:39:31.711Z,15.50
2023-04-10T04:40:31.695Z,13.60
2023-04-10T04:41:31.686Z,15.30
2023-04-10T04:42:31.687Z,14.50
2023-04-10T04:43:31.674Z,13.40
2023-04-10T04:44:31.660Z,15.90
2023-04-10T04:45:31.652Z,19.20
2023-04-10T04:46:31.666Z,17.10
2023-04-10T04:47:31.634Z,15.20
2023-04-10T04:48:31.594Z,14.60
2023-04-10T04:49:31.608Z,13.50
2023-04-10T04:50:31.570Z,14.30
2023-04-10T04:51:31.608Z,18.60
2023-04-10T04:52:31.576Z,15.60
2023-04-10T04:53:31.569Z,15.10
2023-04-10T04:54:31.524Z,15.50
2023-04-10T04:55:31.534Z,18.80
2023-04-10T04:56:31.577Z,17.20
2023-04-10T04:57:31.504Z,18.30
2023-04-10T04:58:31.500Z,16.90
2023-04-10T04:59:31.472Z,16.20
2023-04-10T05:00:31.460Z,16.60
2023-04-10T05:01:31.465Z,16.90
2023-04-10T05:02:31.542Z,15.20
2023-04-10T05:03:31.635Z,18.40
2023-04-10T05:04:31.433Z,19.20
2023-04-10T05:05:31.402Z,18.00
2023-04-10T05:06:31.407Z,17.50
2023-04-10T05:07:31.410Z,16.70
2023-04-10T05:08:31.370Z,19.10
2023-04-10T05:09:31.370Z,22.10
2023-04-10T05:10:31.341Z,16.70
2023-04-10T05:11:31.395Z,18.20
2023-04-10T05:12:31.324Z,19.30
2023-04-10T05:13:31.384Z,17.30
2023-04-10T05:14:31.295Z,19.00
2023-04-10T05:15:31.343Z,17.60
2023-04-10T05:16:31.274Z,17.40
2023-04-10T05:17:31.305Z,20.70
2023-04-10T05:18:31.327Z,19.50
2023-04-10T05:19:31.242Z,17.90
2023-04-10T05:20:31.241Z,19.90
2023-04-10T05:21:31.247Z,23.10
2023-04-10T05:22:31.208Z,17.30
2023-04-10T05:23:31.213Z,20.40
2023-04-10T05:24:31.180Z,18.90
2023-04-10T05:25:31.192Z,20.40
2023-04-10T05:26:31.159Z,20.30
2023-04-10T05:27:31.187Z,20.40
2023-04-10T05:28:31.179Z,21.10
2023-04-10T05:29:31.131Z,17.60
2023-04-10T05:30:31.117Z,18.90
2023-04-10T05:31:31.215Z,18.70
2023-04-10T05:32:31.173Z,19.70
2023-04-10T05:33:31.090Z,18.60
2023-04-10T05:34:31.094Z,18.80
2023-04-10T05:35:31.089Z,18.80
2023-04-10T05:36:31.667Z,19.00
2023-04-10T05:37:31.060Z,21.40
2023-04-10T05:38:31.026Z,19.30
2023-04-10T05:39:31.025Z,18.30
2023-04-10T05:40:31.040Z,19.10
2023-04-10T05:41:30.992Z,19.60
2023-04-10T05:42:31.009Z,17.80
2023-04-10T05:43:30.996Z,20.30
2023-04-10T05:44:30.964Z,19.50
2023-04-10T05:45:30.977Z,20.50
2023-04-10T05:46:31.011Z,21.70
2023-04-10T05:47:31.029Z,23.30
2023-04-10T05:48:30.923Z,21.10
2023-04-10T05:49:30.927Z,22.80
2023-04-10T05:50:30.894Z,22.20
2023-04-10T05:51:30.912Z,21.80
2023-04-10T05:52:30.889Z,21.00
2023-04-10T05:53:30.859Z,22.40
2023-04-10T05:54:30.862Z,23.10
2023-04-10T05:55:30.840Z,21.40
2023-04-10T05:56:30.823Z,23.80
2023-04-10T05:57:30.836Z,23.40
2023-04-10T05:58:30.859Z,23.70
2023-04-10T05:59:30.814Z,21.00
2023-04-10T06:00:30.816Z,24.40
2023-04-10T06:01:30.769Z,19.40
2023-04-10T06:02:31.185Z,22.40
2023-04-10T06:03:31.008Z,21.30
2023-04-10T06:04:30.923Z,20.30
2023-04-10T06:05:30.724Z,22.70
2023-04-10T06:06:30.707Z,19.30
2023-04-10T06:07:30.770Z,18.50
2023-04-10T06:08:30.722Z,19.20
2023-04-10T06:09:30.713Z,20.40
2023-04-10T06:10:30.665Z,22.40
2023-04-10T06:11:30.655Z,22.90
2023-04-10T06:12:30.659Z,20.50
2023-04-10T06:13:30.629Z,18.90
2023-04-10T06:14:30.636Z,22.40
2023-04-10T06:15:30.646Z,20.00
2023-04-10T06:16:30.676Z,20.60
2023-04-10T06:17:37.864Z,21.60
2023-04-10T06:18:38.257Z,19.70
2023-04-10T06:19:30.566Z,16.00
2023-04-10T06:20:39.431Z,16.60
2023-04-10T06:21:38.190Z,16.30
2023-04-10T06:23:46.734Z,13.50
2023-04-10T06:24:46.940Z,14.20
2023-04-10T06:25:46.964Z,14.30
2023-04-10T06:26:46.666Z,13.90
2023-04-10T06:27:46.659Z,14.20
2023-04-10T06:28:46.678Z,15.20
2023-04-10T06:29:46.636Z,12.30
2023-04-10T06:30:46.665Z,11.70
2023-04-10T06:31:46.844Z,12.60
2023-04-10T06:32:46.641Z,11.70
2023-04-10T06:33:46.618Z,11.20
2023-04-10T06:34:46.578Z,10.60
2023-04-10T06:35:46.616Z,10.90
2023-04-10T06:36:46.572Z,11.90
2023-04-10T06:37:46.566Z,11.30
2023-04-10T06:38:46.533Z,9.50
2023-04-10T06:39:46.561Z,10.20
2023-04-10T06:40:46.511Z,9.40
2023-04-10T06:41:46.502Z,10.60
2023-04-10T06:42:46.507Z,9.30
2023-04-10T06:43:46.512Z,10.10
2023-04-10T06:44:46.470Z,11.00
2023-04-10T06:45:46.514Z,10.70
2023-04-10T06:46:46.462Z,11.00
2023-04-10T06:47:46.461Z,11.10
2023-04-10T06:48:46.451Z,10.70
2023-04-10T06:49:46.424Z,11.90
2023-04-10T06:50:46.587Z,9.60
2023-04-10T06:51:46.409Z,11.80
2023-04-10T06:52:46.440Z,12.50
2023-04-10T06:53:46.516Z,14.20
2023-04-10T06:54:46.366Z,11.30
2023-04-10T06:55:46.347Z,10.90
2023-04-10T06:56:46.352Z,11.50
2023-04-10T06:57:46.338Z,10.50
2023-04-10T06:58:46.311Z,11.20
2023-04-10T06:59:46.315Z,12.20
2023-04-10T07:00:46.338Z,11.50
2023-04-10T07:01:46.328Z,11.60
2023-04-10T07:02:46.436Z,10.60
2023-04-10T07:03:46.269Z,11.50
2023-04-10T07:04:46.269Z,11.30
2023-04-10T07:05:46.251Z,11.60
2023-04-10T07:06:46.241Z,11.50
2023-04-10T07:07:46.212Z,10.40
2023-04-10T07:08:46.195Z,10.70
2023-04-10T07:09:46.253Z,12.00
2023-04-10T07:10:46.263Z,10.00
2023-04-10T07:11:46.169Z,11.70
2023-04-10T07:12:46.157Z,10.80
2023-04-10T07:13:46.148Z,10.20
2023-04-10T07:14:46.128Z,11.00
2023-04-10T07:15:46.136Z,11.60
2023-04-10T07:16:46.364Z,10.50
2023-04-10T07:17:46.129Z,11.20
2023-04-10T07:18:47.398Z,11.00
2023-04-10T07:19:46.114Z,11.50
2023-04-10T07:20:46.086Z,11.50
2023-04-10T07:21:46.053Z,12.20
2023-04-10T07:22:46.046Z,10.50
2023-04-10T07:23:46.031Z,11.50
2023-04-10T07:24:46.020Z,18.50
2023-04-10T07:25:46.019Z,16.80
2023-04-10T07:26:46.017Z,13.10
2023-04-10T07:27:45.994Z,14.30
2023-04-10T07:28:45.985Z,10.90
2023-04-10T07:29:45.963Z,12.50
2023-04-10T07:30:45.954Z,11.50
2023-04-10T07:31:46.020Z,11.50
2023-04-10T07:32:46.053Z,10.30
2023-04-10T07:33:45.980Z,12.30
2023-04-10T07:34:45.928Z,12.50
2023-04-10T07:35:45.955Z,10.60
2023-04-10T07:36:46.183Z,12.40
2023-04-10T07:37:45.957Z,10.00
2023-04-10T07:38:45.862Z,9.80
2023-04-10T07:39:45.848Z,10.60
2023-04-10T07:40:45.850Z,9.70
2023-04-10T07:41:47.912Z,11.30
2023-04-10T07:42:45.823Z,12.80
2023-04-10T07:43:45.821Z,10.10
2023-04-10T07:44:45.794Z,12.00
2023-04-10T07:45:45.799Z,10.40
2023-04-10T07:46:45.813Z,11.00
2023-04-10T07:47:45.795Z,9.80
2023-04-10T07:48:45.771Z,8.80
2023-04-10T07:49:45.742Z,8.10
2023-04-10T07:50:45.761Z,10.40
2023-04-10T07:51:45.738Z,8.60
2023-04-10T07:52:45.788Z,8.50
2023-04-10T07:53:45.692Z,8.20
2023-04-10T07:54:45.706Z,9.50
2023-04-10T07:55:45.666Z,10.80
2023-04-10T07:56:45.726Z,9.10
2023-04-10T07:57:45.647Z,8.10
2023-04-10T07:58:45.654Z,8.00
2023-04-10T07:59:45.654Z,8.20
2023-04-10T08:00:45.609Z,9.60
2023-04-10T08:01:45.646Z,9.20
2023-04-10T08:02:45.686Z,7.90
2023-04-10T08:03:45.720Z,9.00
2023-04-10T08:04:45.643Z,7.50
2023-04-10T08:05:45.552Z,9.10
2023-04-10T08:06:45.593Z,7.80
2023-04-10T08:07:45.524Z,8.70
2023-04-10T08:08:45.526Z,8.10
2023-04-10T08:09:45.525Z,7.10
2023-04-10T08:10:45.516Z,7.70
2023-04-10T08:11:45.543Z,7.10
2023-04-10T08:12:45.489Z,7.00
2023-04-10T08:13:45.458Z,8.60
2023-04-10T08:14:45.451Z,7.80
2023-04-10T08:15:45.456Z,9.00
2023-04-10T08:16:45.480Z,7.30
2023-04-10T08:17:45.507Z,7.00
2023-04-10T08:18:45.406Z,7.90
2023-04-10T08:19:45.419Z,7.50
2023-04-10T08:20:45.383Z,7.30
2023-04-10T08:21:45.381Z,7.10
2023-04-10T08:22:45.405Z,6.60
2023-04-10T08:23:45.346Z,6.60
2023-04-10T08:24:45.338Z,7.60
2023-04-10T08:25:45.338Z,6.80
2023-04-10T08:26:45.352Z,7.70
2023-04-10T08:27:45.317Z,8.30
2023-04-10T08:28:45.306Z,7.30
2023-04-10T08:29:45.285Z,9.70
2023-04-10T08:30:45.336Z,8.10
2023-04-10T08:31:45.293Z,9.60
2023-04-10T08:32:45.291Z,8.60
2023-04-10T08:33:45.262Z,8.50
2023-04-10T08:34:45.281Z,9.00
2023-04-10T08:35:45.227Z,8.20
2023-04-10T08:36:45.228Z,8.80
2023-04-10T08:37:49.683Z,11.70
2023-04-10T08:38:46.203Z,8.50
2023-04-10T08:39:45.170Z,8.60
2023-04-10T08:40:45.205Z,9.50
2023-04-10T08:41:45.143Z,7.30
2023-04-10T08:42:45.154Z,7.00
2023-04-10T08:43:45.129Z,7.70
2023-04-10T08:44:45.112Z,8.30
2023-04-10T08:45:45.164Z,7.60
2023-04-10T08:46:45.112Z,7.90
2023-04-10T08:47:45.113Z,9.10
2023-04-10T08:48:45.069Z,8.00
2023-04-10T08:49:45.055Z,7.30
2023-04-10T08:50:45.047Z,7.80
2023-04-10T08:51:46.263Z,8.10
2023-04-10T08:52:45.056Z,7.80
2023-04-10T08:53:45.017Z,9.70
2023-04-10T08:54:45.043Z,9.40
2023-04-10T08:55:45.002Z,10.40
2023-04-10T08:56:44.994Z,7.20
2023-04-10T08:57:50.946Z,9.60
2023-04-10T08:58:46.024Z,8.70
2023-04-10T08:59:44.957Z,11.00
2023-04-10T09:00:44.935Z,7.70
2023-04-10T09:01:44.983Z,8.00
2023-04-10T09:02:45.144Z,10.40
2023-04-10T09:03:44.962Z,8.90
2023-04-10T09:04:45.000Z,10.50
2023-04-10T09:05:44.876Z,10.10
2023-04-10T09:06:44.871Z,13.30
2023-04-10T09:07:44.903Z,9.50
2023-04-10T09:08:44.855Z,10.20
2023-04-10T09:09:44.842Z,9.90
2023-04-10T09:10:44.857Z,8.60
2023-04-10T09:11:44.817Z,9.70
2023-04-10T09:12:44.831Z,9.10
2023-04-10T09:13:44.794Z,9.60
2023-04-10T09:14:45.311Z,9.40
2023-04-10T09:15:44.806Z,8.10
2023-04-10T09:16:44.792Z,9.10
2023-04-10T09:17:44.774Z,8.50
2023-04-10T09:18:44.738Z,9.40
2023-04-10T09:19:44.734Z,6.80
2023-04-10T09:20:44.711Z,8.30
2023-04-10T09:21:44.701Z,7.50
2023-04-10T09:22:44.730Z,8.70
2023-04-10T09:23:44.733Z,8.70
2023-04-10T09:24:44.696Z,8.70
2023-04-10T09:25:44.656Z,6.00
2023-04-10T09:26:44.674Z,8.30
2023-04-10T09:27:44.640Z,8.90
2023-04-10T09:28:44.651Z,7.40
2023-04-10T09:29:44.629Z,8.40
2023-04-10T09:30:44.603Z,7.20
2023-04-10T09:31:44.681Z,8.80
2023-04-10T09:32:44.608Z,8.10
2023-04-10T09:33:44.577Z,7.60
2023-04-10T09:34:44.592Z,8.40
2023-04-10T09:35:44.562Z,7.70
2023-04-10T09:36:44.574Z,9.70
2023-04-10T09:37:44.538Z,7.60
2023-04-10T09:38:44.513Z,7.40
2023-04-10T09:39:44.517Z,7.70
2023-04-10T09:40:44.526Z,7.90
2023-04-10T09:41:44.477Z,7.50
2023-04-10T09:42:44.514Z,7.20
2023-04-10T09:43:44.452Z,7.10
2023-04-10T09:44:44.453Z,9.20
2023-04-10T09:45:44.432Z,8.90
2023-04-10T09:46:44.488Z,7.80
2023-04-10T09:47:44.478Z,8.60
2023-04-10T09:48:44.398Z,8.10
2023-04-10T09:49:44.389Z,8.70
2023-04-10T09:50:44.386Z,11.70
2023-04-10T09:51:44.366Z,9.20
2023-04-10T09:52:44.369Z,8.50
2023-04-10T09:53:44.371Z,8.70
2023-04-10T09:54:44.344Z,7.60
2023-04-10T09:55:44.322Z,9.00
2023-04-10T09:56:44.311Z,10.20
2023-04-10T09:57:44.319Z,8.00
2023-04-10T09:58:44.307Z,8.10
2023-04-10T09:59:44.281Z,10.80
2023-04-10T10:00:44.272Z,9.20
2023-04-10T10:01:44.439Z,7.90
2023-04-10T10:02:44.363Z,8.00
2023-04-10T10:03:44.291Z,8.20
2023-04-10T10:04:44.310Z,7.70
2023-04-10T10:05:44.214Z,8.90
2023-04-10T10:06:44.205Z,8.90
2023-04-10T10:07:44.208Z,8.10
2023-04-10T10:08:44.177Z,8.40
2023-04-10T10:09:44.176Z,8.70
2023-04-10T10:10:44.192Z,10.10
2023-04-10T10:11:44.180Z,8.70
2023-04-10T10:12:44.136Z,7.90
2023-04-10T10:13:44.127Z,8.00
2023-04-10T10:14:44.184Z,7.50
2023-04-10T10:15:44.115Z,7.70
2023-04-10T10:16:44.258Z,8.40
2023-04-10T10:17:44.124Z,8.00
2023-04-10T10:18:44.066Z,7.60
2023-04-10T10:19:44.053Z,8.00
2023-04-10T10:20:44.047Z,7.20
2023-04-10T10:21:44.062Z,7.10
2023-04-10T10:22:44.041Z,5.90
2023-04-10T10:23:44.029Z,6.80
2023-04-10T10:24:44.006Z,6.20
2023-04-10T10:25:44.027Z,6.20
2023-04-10T10:26:43.989Z,7.60
2023-04-10T10:27:43.976Z,7.10
2023-04-10T10:28:43.993Z,7.50
2023-04-10T10:29:43.943Z,7.40
2023-04-10T10:30:43.970Z,6.00
2023-04-10T10:31:43.946Z,5.90
2023-04-10T10:32:43.941Z,6.30
2023-04-10T10:33:43.907Z,5.40
2023-04-10T10:34:43.933Z,5.90
2023-04-10T10:35:43.882Z,7.70
2023-04-10T10:36:43.934Z,6.10
2023-04-10T10:37:43.855Z,5.90
2023-04-10T10:38:43.865Z,6.70
2023-04-10T10:39:43.850Z,6.60
2023-04-10T10:40:43.848Z,5.10
2023-04-10T10:41:43.807Z,5.30
2023-04-10T10:42:43.805Z,5.10
2023-04-10T10:43:43.817Z,5.10
2023-04-10T10:44:43.778Z,5.20
2023-04-10T10:45:43.838Z,5.80
2023-04-10T10:46:43.814Z,4.70
2023-04-10T10:47:44.606Z,5.10
2023-04-10T10:48:43.735Z,6.00
2023-04-10T10:49:43.739Z,5.60
2023-04-10T10:50:43.719Z,5.60
2023-04-10T10:51:43.744Z,6.20
2023-04-10T10:52:43.794Z,7.10
2023-04-10T10:53:43.715Z,8.70
2023-04-10T10:54:57.053Z,6.00
2023-04-10T10:55:44.652Z,5.90
2023-04-10T10:56:43.648Z,6.50
2023-04-10T10:57:43.653Z,6.10
2023-04-10T10:58:43.661Z,5.60
2023-04-10T10:59:43.618Z,7.00
2023-04-10T11:00:43.637Z,6.00
2023-04-10T11:01:43.700Z,5.50
2023-04-10T11:02:43.767Z,5.60
2023-04-10T11:03:43.677Z,6.50
2023-04-10T11:04:43.589Z,6.50
2023-04-10T11:05:43.538Z,5.20
2023-04-10T11:06:44.697Z,5.20
2023-04-10T11:07:43.517Z,5.90
2023-04-10T11:08:43.536Z,6.30
2023-04-10T11:09:43.492Z,6.70
2023-04-10T11:10:43.498Z,6.00
2023-04-10T11:11:43.473Z,5.90
2023-04-10T11:12:43.475Z,5.60
2023-04-10T11:13:43.447Z,7.10
2023-04-10T11:14:43.438Z,7.20
2023-04-10T11:15:43.423Z,5.20
2023-04-10T11:16:43.489Z,5.90
2023-04-10T11:17:43.446Z,5.80
2023-04-10T11:18:43.406Z,8.20
2023-04-10T11:19:43.374Z,6.00
2023-04-10T11:20:43.388Z,7.30
2023-04-10T11:21:43.353Z,7.00
2023-04-10T11:22:43.361Z,8.10
2023-04-10T11:23:43.331Z,8.10
2023-04-10T11:24:43.320Z,7.10
2023-04-10T11:25:43.324Z,6.20
2023-04-10T11:26:43.312Z,7.00
2023-04-10T11:27:43.283Z,7.10
2023-04-10T11:28:43.286Z,6.70
2023-04-10T11:29:43.262Z,9.00
2023-04-10T11:30:43.267Z,8.40
2023-04-10T11:31:43.248Z,6.80
2023-04-10T11:32:43.248Z,7.10
2023-04-10T11:33:43.237Z,7.30
2023-04-10T11:34:43.226Z,7.70
2023-04-10T11:35:43.203Z,7.30
2023-04-10T11:36:43.188Z,8.60
2023-04-10T11:37:43.163Z,8.00
2023-04-10T11:38:43.175Z,7.00
2023-04-10T11:39:43.144Z,8.40
2023-04-10T11:40:43.153Z,7.60
2023-04-10T11:41:43.119Z,6.90
2023-04-10T11:42:43.107Z,7.40
2023-04-10T11:43:43.115Z,7.60
2023-04-10T11:44:43.107Z,6.30
2023-04-10T11:45:43.089Z,7.60
2023-04-10T11:46:43.096Z,9.30
2023-04-10T11:47:43.134Z,8.90
2023-04-10T11:48:43.039Z,9.40
2023-04-10T11:49:43.040Z,8.40
2023-04-10T11:50:43.029Z,7.60
2023-04-10T11:51:43.001Z,9.00
2023-04-10T11:52:43.003Z,7.10
2023-04-10T11:53:43.037Z,8.30
2023-04-10T11:54:42.987Z,8.80
2023-04-10T11:55:42.954Z,7.80
2023-04-10T11:56:42.945Z,8.40
2023-04-10T11:57:42.929Z,8.40
2023-04-10T11:58:42.942Z,8.90
2023-04-10T11:59:42.908Z,8.70
2023-04-10T12:00:42.915Z,8.50
2023-04-10T12:01:43.476Z,7.90
2023-04-10T12:02:42.973Z,8.20
2023-04-10T12:03:43.007Z,7.30
2023-04-10T12:04:43.176Z,7.60
2023-04-10T12:05:42.835Z,6.90
2023-04-10T12:06:42.867Z,8.40
2023-04-10T12:07:42.810Z,7.90
2023-04-10T12:08:42.805Z,8.70
2023-04-10T12:09:42.816Z,7.80
2023-04-10T12:10:42.791Z,8.30
2023-04-10T12:11:42.771Z,8.50
2023-04-10T12:12:42.761Z,7.40
2023-04-10T12:13:42.744Z,7.40
2023-04-10T12:14:42.761Z,8.80
2023-04-10T12:15:42.772Z,8.40
2023-04-10T12:16:42.730Z,6.80
2023-04-10T12:17:42.733Z,7.80
2023-04-10T12:18:42.708Z,8.20
2023-04-10T12:19:42.683Z,8.30
2023-04-10T12:20:42.670Z,9.20
2023-04-10T12:21:42.670Z,7.70
2023-04-10T12:22:42.675Z,8.70
2023-04-10T12:23:42.637Z,7.80
2023-04-10T12:24:45.548Z,6.50
2023-04-10T12:25:42.626Z,6.40
2023-04-10T12:26:42.594Z,7.10
2023-04-10T12:27:42.594Z,6.30
2023-04-10T12:28:42.606Z,5.90
2023-04-10T12:29:42.563Z,7.10
2023-04-10T12:30:42.552Z,7.00
2023-04-10T12:31:42.833Z,7.80
2023-04-10T12:32:42.599Z,9.20
2023-04-10T12:33:42.522Z,7.20
2023-04-10T12:34:42.523Z,5.80
2023-04-10T12:35:42.568Z,6.80
2023-04-10T12:36:42.532Z,7.20
2023-04-10T12:37:42.487Z,5.80
2023-04-10T12:38:42.506Z,5.10
2023-04-10T12:39:42.457Z,6.50
2023-04-10T12:40:42.481Z,6.40
2023-04-10T12:41:42.436Z,6.60
2023-04-10T12:42:42.430Z,5.20
2023-04-10T12:43:42.449Z,5.20
2023-04-10T12:44:42.423Z,4.40
2023-04-10T12:45:42.392Z,5.50
2023-04-10T12:46:42.453Z,5.00
2023-04-10T12:47:42.386Z,5.70
2023-04-10T12:48:42.379Z,4.50
2023-04-10T12:49:42.346Z,4.80
2023-04-10T12:50:42.350Z,3.90
2023-04-10T12:51:42.343Z,4.10
2023-04-10T12:52:42.319Z,4.60
2023-04-10T12:53:42.327Z,5.50
2023-04-10T12:54:42.337Z,5.80
2023-04-10T12:55:49.975Z,5.40
2023-04-10T12:56:42.278Z,6.40
2023-04-10T12:57:42.266Z,5.70
2023-04-10T12:58:42.281Z,5.40
2023-04-10T12:59:42.237Z,5.40
2023-04-10T13:00:49.421Z,5.50
2023-04-10T13:01:42.272Z,4.90
2023-04-10T13:02:42.399Z,5.70
2023-04-10T13:03:42.306Z,4.30